sensor_id;sensor_type;location;lat;lon;timestamp;P1;durP1;ratioP1;P2;durP2;ratioP2
64894;SDS011;51588;53.702;10.208;2022-11-15T00:00:14;15.17;;;12.17;;
64894;SDS011;51588;53.702;10.208;2022-11-15T00:02:42;16.70;;;12.20;;
64894;SDS011;51588;53.702;10.208;2022-11-15T00:05:09;14.23;;;11.40;;
64894;SDS011;51588;53.702;10.208;2022-11-15T00:07:35;15.23;;;10.90;;
64894;SDS011;51588;53.702;10.208;2022-11-15T00:10:02;14.20;;;11.00;;
64894;SDS011;51588;53.702;10.208;2022-11-15T00:12:28;13.80;;;11.00;;
64894;SDS011;51588;53.702;10.208;2022-11-15T00:14:55;14.27;;;11.50;;
64894;SDS011;51588;53.702;10.208;2022-11-15T00:17:21;13.83;;;11.27;;
64894;SDS011;51588;53.702;10.208;2022-11-15T00:19:49;13.70;;;11.37;;
64894;SDS011;51588;53.702;10.208;2022-11-15T00:22:15;14.70;;;11.27;;
64894;SDS011;51588;53.702;10.208;2022-11-15T00:24:42;14.00;;;11.20;;
64894;SDS011;51588;53.702;10.208;2022-11-15T00:27:08;15.07;;;11.60;;
64894;SDS011;51588;53.702;10.208;2022-11-15T00:29:35;14.67;;;11.17;;
64894;SDS011;51588;53.702;10.208;2022-11-15T00:32:02;14.20;;;11.27;;
64894;SDS011;51588;53.702;10.208;2022-11-15T00:34:29;14.13;;;10.77;;
64894;SDS011;51588;53.702;10.208;2022-11-15T00:36:56;13.40;;;11.13;;
64894;SDS011;51588;53.702;10.208;2022-11-15T00:39:23;14.40;;;10.93;;
64894;SDS011;51588;53.702;10.208;2022-11-15T00:41:49;15.37;;;11.57;;
64894;SDS011;51588;53.702;10.208;2022-11-15T00:44:16;15.23;;;11.67;;
64894;SDS011;51588;53.702;10.208;2022-11-15T00:46:42;12.87;;;10.63;;
64894;SDS011;51588;53.702;10.208;2022-11-15T00:49:08;14.23;;;11.17;;
64894;SDS011;51588;53.702;10.208;2022-11-15T00:51:35;14.00;;;12.00;;
64894;SDS011;51588;53.702;10.208;2022-11-15T00:54:03;14.20;;;11.50;;
64894;SDS011;51588;53.702;10.208;2022-11-15T00:56:29;13.93;;;11.03;;
64894;SDS011;51588;53.702;10.208;2022-11-15T00:58:56;13.40;;;10.70;;
64894;SDS011;51588;53.702;10.208;2022-11-15T01:01:22;14.93;;;11.10;;
64894;SDS011;51588;53.702;10.208;2022-11-15T01:03:48;14.17;;;11.50;;
64894;SDS011;51588;53.702;10.208;2022-11-15T01:06:15;13.70;;;11.23;;
64894;SDS011;51588;53.702;10.208;2022-11-15T01:08:41;12.00;;;10.60;;
64894;SDS011;51588;53.702;10.208;2022-11-15T01:11:10;15.67;;;12.00;;
64894;SDS011;51588;53.702;10.208;2022-11-15T01:13:37;14.37;;;11.53;;
64894;SDS011;51588;53.702;10.208;2022-11-15T01:16:08;14.87;;;11.77;;
64894;SDS011;51588;53.702;10.208;2022-11-15T01:18:35;15.37;;;11.70;;
64894;SDS011;51588;53.702;10.208;2022-11-15T01:21:04;12.90;;;10.73;;
64894;SDS011;51588;53.702;10.208;2022-11-15T01:23:30;14.50;;;11.20;;
64894;SDS011;51588;53.702;10.208;2022-11-15T01:25:58;13.20;;;11.20;;
64894;SDS011;51588;53.702;10.208;2022-11-15T01:28:26;14.37;;;12.00;;
64894;SDS011;51588;53.702;10.208;2022-11-15T01:30:57;13.07;;;10.93;;
64894;SDS011;51588;53.702;10.208;2022-11-15T01:33:23;16.03;;;11.70;;
64894;SDS011;51588;53.702;10.208;2022-11-15T01:35:50;16.03;;;11.53;;
64894;SDS011;51588;53.702;10.208;2022-11-15T01:38:16;14.30;;;11.53;;
64894;SDS011;51588;53.702;10.208;2022-11-15T01:40:42;14.33;;;11.50;;
64894;SDS011;51588;53.702;10.208;2022-11-15T01:43:19;13.27;;;10.77;;
64894;SDS011;51588;53.702;10.208;2022-11-15T01:45:48;13.00;;;10.77;;
64894;SDS011;51588;53.702;10.208;2022-11-15T01:48:15;14.30;;;11.53;;
64894;SDS011;51588;53.702;10.208;2022-11-15T01:50:42;13.57;;;11.20;;
64894;SDS011;51588;53.702;10.208;2022-11-15T01:53:08;12.40;;;11.00;;
64894;SDS011;51588;53.702;10.208;2022-11-15T01:55:35;15.60;;;11.60;;
64894;SDS011;51588;53.702;10.208;2022-11-15T01:58:02;14.83;;;11.37;;
64894;SDS011;51588;53.702;10.208;2022-11-15T02:00:30;13.03;;;10.63;;
64894;SDS011;51588;53.702;10.208;2022-11-15T02:02:58;14.10;;;11.60;;
64894;SDS011;51588;53.702;10.208;2022-11-15T02:05:25;13.90;;;10.80;;
64894;SDS011;51588;53.702;10.208;2022-11-15T02:07:51;13.10;;;11.27;;
64894;SDS011;51588;53.702;10.208;2022-11-15T02:10:18;12.33;;;11.03;;
64894;SDS011;51588;53.702;10.208;2022-11-15T02:12:45;13.03;;;10.60;;
64894;SDS011;51588;53.702;10.208;2022-11-15T02:15:12;14.23;;;10.70;;
64894;SDS011;51588;53.702;10.208;2022-11-15T02:17:58;13.03;;;10.60;;
64894;SDS011;51588;53.702;10.208;2022-11-15T02:23:31;14.00;;;10.77;;
64894;SDS011;51588;53.702;10.208;2022-11-15T02:26:08;14.20;;;11.23;;
64894;SDS011;51588;53.702;10.208;2022-11-15T02:28:45;14.20;;;11.53;;
64894;SDS011;51588;53.702;10.208;2022-11-15T02:31:17;13.80;;;10.90;;
64894;SDS011;51588;53.702;10.208;2022-11-15T02:33:47;13.23;;;10.60;;
64894;SDS011;51588;53.702;10.208;2022-11-15T02:36:18;14.10;;;10.87;;
64894;SDS011;51588;53.702;10.208;2022-11-15T02:38:52;12.97;;;10.37;;
64894;SDS011;51588;53.702;10.208;2022-11-15T02:41:22;13.50;;;10.83;;
64894;SDS011;51588;53.702;10.208;2022-11-15T02:43:51;14.77;;;10.73;;
64894;SDS011;51588;53.702;10.208;2022-11-15T02:46:23;12.13;;;10.10;;
64894;SDS011;51588;53.702;10.208;2022-11-15T02:49:11;13.40;;;10.90;;
64894;SDS011;51588;53.702;10.208;2022-11-15T02:51:38;11.90;;;9.93;;
64894;SDS011;51588;53.702;10.208;2022-11-15T02:54:04;13.87;;;10.57;;
64894;SDS011;51588;53.702;10.208;2022-11-15T02:56:31;13.67;;;10.90;;
64894;SDS011;51588;53.702;10.208;2022-11-15T02:59:01;14.20;;;10.93;;
64894;SDS011;51588;53.702;10.208;2022-11-15T03:01:38;11.43;;;9.67;;
64894;SDS011;51588;53.702;10.208;2022-11-15T03:04:08;13.30;;;10.37;;
64894;SDS011;51588;53.702;10.208;2022-11-15T03:06:41;12.00;;;9.97;;
64894;SDS011;51588;53.702;10.208;2022-11-15T03:09:09;10.90;;;9.50;;
64894;SDS011;51588;53.702;10.208;2022-11-15T03:11:37;14.73;;;10.67;;
64894;SDS011;51588;53.702;10.208;2022-11-15T03:14:07;11.73;;;10.40;;
64894;SDS011;51588;53.702;10.208;2022-11-15T03:16:38;12.83;;;10.30;;
64894;SDS011;51588;53.702;10.208;2022-11-15T03:19:06;12.73;;;10.57;;
64894;SDS011;51588;53.702;10.208;2022-11-15T03:21:36;12.57;;;10.00;;
64894;SDS011;51588;53.702;10.208;2022-11-15T03:24:05;12.03;;;10.17;;
64894;SDS011;51588;53.702;10.208;2022-11-15T03:26:32;12.30;;;9.90;;
64894;SDS011;51588;53.702;10.208;2022-11-15T03:29:00;13.00;;;10.30;;
64894;SDS011;51588;53.702;10.208;2022-11-15T03:31:29;12.30;;;9.90;;
64894;SDS011;51588;53.702;10.208;2022-11-15T03:34:15;13.67;;;10.40;;
64894;SDS011;51588;53.702;10.208;2022-11-15T03:36:45;11.80;;;9.77;;
64894;SDS011;51588;53.702;10.208;2022-11-15T03:39:11;13.27;;;10.87;;
64894;SDS011;51588;53.702;10.208;2022-11-15T03:41:39;13.57;;;10.80;;
64894;SDS011;51588;53.702;10.208;2022-11-15T03:44:10;11.60;;;9.93;;
64894;SDS011;51588;53.702;10.208;2022-11-15T03:46:38;9.83;;;8.80;;
64894;SDS011;51588;53.702;10.208;2022-11-15T03:49:07;12.07;;;9.70;;
64894;SDS011;51588;53.702;10.208;2022-11-15T03:51:36;11.47;;;9.60;;
64894;SDS011;51588;53.702;10.208;2022-11-15T03:54:02;14.00;;;10.13;;
64894;SDS011;51588;53.702;10.208;2022-11-15T03:56:29;13.93;;;10.10;;
64894;SDS011;51588;53.702;10.208;2022-11-15T03:58:56;12.60;;;10.07;;
64894;SDS011;51588;53.702;10.208;2022-11-15T04:01:23;12.10;;;10.13;;
64894;SDS011;51588;53.702;10.208;2022-11-15T04:03:49;11.93;;;9.90;;
64894;SDS011;51588;53.702;10.208;2022-11-15T04:06:16;13.37;;;9.77;;
64894;SDS011;51588;53.702;10.208;2022-11-15T04:08:43;11.83;;;9.33;;
64894;SDS011;51588;53.702;10.208;2022-11-15T04:11:10;11.90;;;9.73;;
64894;SDS011;51588;53.702;10.208;2022-11-15T04:13:36;12.17;;;9.60;;
64894;SDS011;51588;53.702;10.208;2022-11-15T04:16:03;13.43;;;9.90;;
64894;SDS011;51588;53.702;10.208;2022-11-15T04:18:29;11.40;;;9.57;;
64894;SDS011;51588;53.702;10.208;2022-11-15T04:20:56;12.20;;;10.13;;
64894;SDS011;51588;53.702;10.208;2022-11-15T04:23:39;12.00;;;9.40;;
64894;SDS011;51588;53.702;10.208;2022-11-15T04:26:24;10.77;;;9.30;;
64894;SDS011;51588;53.702;10.208;2022-11-15T04:28:51;12.50;;;9.77;;
64894;SDS011;51588;53.702;10.208;2022-11-15T04:31:35;12.07;;;10.07;;
64894;SDS011;51588;53.702;10.208;2022-11-15T04:34:01;11.10;;;9.50;;
64894;SDS011;51588;53.702;10.208;2022-11-15T04:36:28;11.60;;;9.47;;
64894;SDS011;51588;53.702;10.208;2022-11-15T04:39:12;10.63;;;9.20;;
64894;SDS011;51588;53.702;10.208;2022-11-15T04:41:39;10.93;;;9.10;;
64894;SDS011;51588;53.702;10.208;2022-11-15T04:44:06;11.30;;;9.43;;
64894;SDS011;51588;53.702;10.208;2022-11-15T04:46:32;11.13;;;9.53;;
64894;SDS011;51588;53.702;10.208;2022-11-15T04:48:59;11.40;;;9.70;;
64894;SDS011;51588;53.702;10.208;2022-11-15T04:51:25;10.03;;;8.87;;
64894;SDS011;51588;53.702;10.208;2022-11-15T04:53:52;10.33;;;8.90;;
64894;SDS011;51588;53.702;10.208;2022-11-15T04:56:18;12.07;;;10.20;;
64894;SDS011;51588;53.702;10.208;2022-11-15T04:58:46;9.80;;;8.70;;
64894;SDS011;51588;53.702;10.208;2022-11-15T05:01:14;11.47;;;9.60;;
64894;SDS011;51588;53.702;10.208;2022-11-15T05:03:41;11.03;;;9.60;;
64894;SDS011;51588;53.702;10.208;2022-11-15T05:06:24;11.10;;;8.87;;
64894;SDS011;51588;53.702;10.208;2022-11-15T05:08:51;11.57;;;9.30;;
64894;SDS011;51588;53.702;10.208;2022-11-15T05:11:17;11.70;;;9.30;;
64894;SDS011;51588;53.702;10.208;2022-11-15T05:13:43;12.77;;;9.67;;
64894;SDS011;51588;53.702;10.208;2022-11-15T05:16:11;10.77;;;9.20;;
64894;SDS011;51588;53.702;10.208;2022-11-15T05:18:38;10.80;;;9.30;;
64894;SDS011;51588;53.702;10.208;2022-11-15T05:21:06;11.77;;;9.37;;
64894;SDS011;51588;53.702;10.208;2022-11-15T05:23:32;11.30;;;9.07;;
64894;SDS011;51588;53.702;10.208;2022-11-15T05:25:59;10.60;;;9.03;;
64894;SDS011;51588;53.702;10.208;2022-11-15T05:28:25;9.27;;;8.27;;
64894;SDS011;51588;53.702;10.208;2022-11-15T05:30:52;11.27;;;8.83;;
64894;SDS011;51588;53.702;10.208;2022-11-15T05:33:20;10.63;;;9.00;;
64894;SDS011;51588;53.702;10.208;2022-11-15T05:35:46;10.83;;;9.57;;
64894;SDS011;51588;53.702;10.208;2022-11-15T05:38:15;11.90;;;9.97;;
64894;SDS011;51588;53.702;10.208;2022-11-15T05:40:42;12.10;;;10.00;;
64894;SDS011;51588;53.702;10.208;2022-11-15T05:43:08;11.90;;;9.57;;
64894;SDS011;51588;53.702;10.208;2022-11-15T05:45:35;11.10;;;9.23;;
64894;SDS011;51588;53.702;10.208;2022-11-15T05:48:03;11.90;;;10.00;;
64894;SDS011;51588;53.702;10.208;2022-11-15T05:50:33;11.73;;;9.40;;
64894;SDS011;51588;53.702;10.208;2022-11-15T05:53:00;11.83;;;9.60;;
64894;SDS011;51588;53.702;10.208;2022-11-15T05:55:27;11.53;;;9.17;;
64894;SDS011;51588;53.702;10.208;2022-11-15T05:57:54;11.57;;;8.57;;
64894;SDS011;51588;53.702;10.208;2022-11-15T06:00:20;10.60;;;8.60;;
64894;SDS011;51588;53.702;10.208;2022-11-15T06:02:47;11.33;;;9.23;;
64894;SDS011;51588;53.702;10.208;2022-11-15T06:05:13;9.50;;;7.87;;
64894;SDS011;51588;53.702;10.208;2022-11-15T06:07:41;10.87;;;8.93;;
64894;SDS011;51588;53.702;10.208;2022-11-15T06:10:09;11.60;;;9.70;;
64894;SDS011;51588;53.702;10.208;2022-11-15T06:12:35;9.20;;;8.00;;
64894;SDS011;51588;53.702;10.208;2022-11-15T06:15:02;9.70;;;8.20;;
64894;SDS011;51588;53.702;10.208;2022-11-15T06:17:28;9.60;;;8.10;;
64894;SDS011;51588;53.702;10.208;2022-11-15T06:19:55;9.93;;;8.23;;
64894;SDS011;51588;53.702;10.208;2022-11-15T06:22:21;9.43;;;7.90;;
64894;SDS011;51588;53.702;10.208;2022-11-15T06:24:49;10.63;;;8.70;;
64894;SDS011;51588;53.702;10.208;2022-11-15T06:27:15;169.13;;;41.80;;
64894;SDS011;51588;53.702;10.208;2022-11-15T06:29:42;100.47;;;24.97;;
64894;SDS011;51588;53.702;10.208;2022-11-15T06:32:08;109.97;;;27.10;;
64894;SDS011;51588;53.702;10.208;2022-11-15T06:34:35;110.33;;;26.07;;
64894;SDS011;51588;53.702;10.208;2022-11-15T06:37:02;103.13;;;24.87;;
64894;SDS011;51588;53.702;10.208;2022-11-15T06:39:28;82.93;;;19.53;;
64894;SDS011;51588;53.702;10.208;2022-11-15T06:41:56;60.10;;;17.60;;
64894;SDS011;51588;53.702;10.208;2022-11-15T06:44:22;61.03;;;16.13;;
64894;SDS011;51588;53.702;10.208;2022-11-15T06:46:49;57.83;;;15.67;;
64894;SDS011;51588;53.702;10.208;2022-11-15T06:49:15;60.50;;;16.60;;
64894;SDS011;51588;53.702;10.208;2022-11-15T06:51:41;45.20;;;14.10;;
64894;SDS011;51588;53.702;10.208;2022-11-15T06:54:08;46.43;;;15.03;;
64894;SDS011;51588;53.702;10.208;2022-11-15T06:56:34;34.57;;;13.77;;
64894;SDS011;51588;53.702;10.208;2022-11-15T06:59:04;34.40;;;12.83;;
64894;SDS011;51588;53.702;10.208;2022-11-15T07:01:31;33.40;;;11.67;;
64894;SDS011;51588;53.702;10.208;2022-11-15T07:03:59;37.03;;;11.60;;
64894;SDS011;51588;53.702;10.208;2022-11-15T07:06:25;26.60;;;11.10;;
64894;SDS011;51588;53.702;10.208;2022-11-15T07:08:52;30.33;;;10.73;;
64894;SDS011;51588;53.702;10.208;2022-11-15T07:11:18;29.70;;;11.00;;
64894;SDS011;51588;53.702;10.208;2022-11-15T07:13:45;31.40;;;11.23;;
64894;SDS011;51588;53.702;10.208;2022-11-15T07:16:12;31.17;;;10.90;;
64894;SDS011;51588;53.702;10.208;2022-11-15T07:18:39;25.70;;;10.50;;
64894;SDS011;51588;53.702;10.208;2022-11-15T07:21:07;24.10;;;10.33;;
64894;SDS011;51588;53.702;10.208;2022-11-15T07:23:35;27.13;;;10.77;;
64894;SDS011;51588;53.702;10.208;2022-11-15T07:26:02;29.17;;;10.90;;
64894;SDS011;51588;53.702;10.208;2022-11-15T07:28:28;23.33;;;9.90;;
64894;SDS011;51588;53.702;10.208;2022-11-15T07:30:54;20.90;;;10.10;;
64894;SDS011;51588;53.702;10.208;2022-11-15T07:33:22;19.70;;;9.90;;
64894;SDS011;51588;53.702;10.208;2022-11-15T07:35:49;16.83;;;10.40;;
64894;SDS011;51588;53.702;10.208;2022-11-15T07:38:15;22.50;;;10.40;;
64894;SDS011;51588;53.702;10.208;2022-11-15T07:40:44;26.33;;;10.70;;
64894;SDS011;51588;53.702;10.208;2022-11-15T07:43:11;22.77;;;9.33;;
64894;SDS011;51588;53.702;10.208;2022-11-15T07:45:39;18.27;;;9.27;;
64894;SDS011;51588;53.702;10.208;2022-11-15T07:48:06;17.33;;;9.93;;
64894;SDS011;51588;53.702;10.208;2022-11-15T07:50:34;14.13;;;8.97;;
64894;SDS011;51588;53.702;10.208;2022-11-15T07:53:00;14.17;;;8.90;;
64894;SDS011;51588;53.702;10.208;2022-11-15T07:55:27;19.87;;;9.40;;
64894;SDS011;51588;53.702;10.208;2022-11-15T07:57:59;12.20;;;8.20;;
64894;SDS011;51588;53.702;10.208;2022-11-15T08:00:25;13.50;;;8.13;;
64894;SDS011;51588;53.702;10.208;2022-11-15T08:02:52;14.23;;;8.13;;
64894;SDS011;51588;53.702;10.208;2022-11-15T08:05:18;14.63;;;9.30;;
64894;SDS011;51588;53.702;10.208;2022-11-15T08:07:46;13.30;;;8.90;;
64894;SDS011;51588;53.702;10.208;2022-11-15T08:10:13;16.73;;;8.77;;
64894;SDS011;51588;53.702;10.208;2022-11-15T08:12:41;13.10;;;8.77;;
64894;SDS011;51588;53.702;10.208;2022-11-15T08:15:08;15.33;;;8.87;;
64894;SDS011;51588;53.702;10.208;2022-11-15T08:17:35;14.17;;;8.43;;
64894;SDS011;51588;53.702;10.208;2022-11-15T08:20:01;17.87;;;8.23;;
64894;SDS011;51588;53.702;10.208;2022-11-15T08:22:28;15.10;;;8.53;;
64894;SDS011;51588;53.702;10.208;2022-11-15T08:24:56;11.40;;;7.47;;
64894;SDS011;51588;53.702;10.208;2022-11-15T08:27:22;16.40;;;8.47;;
64894;SDS011;51588;53.702;10.208;2022-11-15T08:29:49;12.20;;;7.60;;
64894;SDS011;51588;53.702;10.208;2022-11-15T08:32:15;11.20;;;8.50;;
64894;SDS011;51588;53.702;10.208;2022-11-15T08:34:42;11.43;;;8.20;;
64894;SDS011;51588;53.702;10.208;2022-11-15T08:37:09;14.40;;;8.47;;
64894;SDS011;51588;53.702;10.208;2022-11-15T08:39:35;12.27;;;7.83;;
64894;SDS011;51588;53.702;10.208;2022-11-15T08:42:04;12.83;;;7.47;;
64894;SDS011;51588;53.702;10.208;2022-11-15T08:44:30;14.90;;;7.90;;
64894;SDS011;51588;53.702;10.208;2022-11-15T08:46:57;13.13;;;7.63;;
64894;SDS011;51588;53.702;10.208;2022-11-15T08:49:23;12.60;;;7.60;;
64894;SDS011;51588;53.702;10.208;2022-11-15T08:51:49;12.90;;;7.90;;
64894;SDS011;51588;53.702;10.208;2022-11-15T08:54:16;13.80;;;8.17;;
64894;SDS011;51588;53.702;10.208;2022-11-15T08:56:42;11.90;;;8.10;;
64894;SDS011;51588;53.702;10.208;2022-11-15T08:59:10;12.83;;;8.30;;
64894;SDS011;51588;53.702;10.208;2022-11-15T09:01:36;11.73;;;7.83;;
64894;SDS011;51588;53.702;10.208;2022-11-15T09:04:03;11.90;;;8.57;;
64894;SDS011;51588;53.702;10.208;2022-11-15T09:06:30;11.00;;;7.70;;
64894;SDS011;51588;53.702;10.208;2022-11-15T09:08:56;10.83;;;7.63;;
64894;SDS011;51588;53.702;10.208;2022-11-15T09:11:22;10.80;;;7.23;;
64894;SDS011;51588;53.702;10.208;2022-11-15T09:13:49;15.13;;;7.83;;
64894;SDS011;51588;53.702;10.208;2022-11-15T09:16:18;10.93;;;7.83;;
64894;SDS011;51588;53.702;10.208;2022-11-15T09:18:44;9.63;;;7.40;;
64894;SDS011;51588;53.702;10.208;2022-11-15T09:21:10;11.00;;;6.67;;
64894;SDS011;51588;53.702;10.208;2022-11-15T09:23:37;11.10;;;7.57;;
64894;SDS011;51588;53.702;10.208;2022-11-15T09:26:04;10.33;;;7.20;;
64894;SDS011;51588;53.702;10.208;2022-11-15T09:28:31;9.87;;;7.57;;
64894;SDS011;51588;53.702;10.208;2022-11-15T09:30:58;9.30;;;7.50;;
64894;SDS011;51588;53.702;10.208;2022-11-15T09:33:26;9.73;;;7.40;;
64894;SDS011;51588;53.702;10.208;2022-11-15T09:35:53;12.63;;;7.60;;
64894;SDS011;51588;53.702;10.208;2022-11-15T09:38:19;9.43;;;7.07;;
64894;SDS011;51588;53.702;10.208;2022-11-15T09:40:46;8.87;;;7.10;;
64894;SDS011;51588;53.702;10.208;2022-11-15T09:43:24;10.80;;;7.43;;
64894;SDS011;51588;53.702;10.208;2022-11-15T09:45:55;9.20;;;7.30;;
64894;SDS011;51588;53.702;10.208;2022-11-15T09:48:29;8.60;;;7.00;;
64894;SDS011;51588;53.702;10.208;2022-11-15T09:50:58;9.03;;;7.23;;
64894;SDS011;51588;53.702;10.208;2022-11-15T09:53:29;11.50;;;7.40;;
64894;SDS011;51588;53.702;10.208;2022-11-15T09:55:58;10.10;;;7.20;;
64894;SDS011;51588;53.702;10.208;2022-11-15T09:58:26;7.50;;;6.20;;
64894;SDS011;51588;53.702;10.208;2022-11-15T10:00:54;12.00;;;7.27;;
64894;SDS011;51588;53.702;10.208;2022-11-15T10:03:23;8.60;;;7.00;;
64894;SDS011;51588;53.702;10.208;2022-11-15T10:05:55;9.10;;;6.87;;
64894;SDS011;51588;53.702;10.208;2022-11-15T10:08:26;12.30;;;6.53;;
64894;SDS011;51588;53.702;10.208;2022-11-15T10:10:55;7.73;;;6.60;;
64894;SDS011;51588;53.702;10.208;2022-11-15T10:13:22;9.00;;;6.13;;
64894;SDS011;51588;53.702;10.208;2022-11-15T10:15:49;7.73;;;6.73;;
64894;SDS011;51588;53.702;10.208;2022-11-15T10:18:16;10.10;;;6.20;;
64894;SDS011;51588;53.702;10.208;2022-11-15T10:20:48;10.03;;;6.63;;
64894;SDS011;51588;53.702;10.208;2022-11-15T10:23:17;7.10;;;5.93;;
64894;SDS011;51588;53.702;10.208;2022-11-15T10:25:44;12.00;;;6.53;;
64894;SDS011;51588;53.702;10.208;2022-11-15T10:28:13;8.57;;;6.57;;
64894;SDS011;51588;53.702;10.208;2022-11-15T10:30:40;12.40;;;6.60;;
64894;SDS011;51588;53.702;10.208;2022-11-15T10:33:11;6.73;;;6.00;;
64894;SDS011;51588;53.702;10.208;2022-11-15T10:35:38;7.47;;;6.27;;
64894;SDS011;51588;53.702;10.208;2022-11-15T10:38:05;8.53;;;6.57;;
64894;SDS011;51588;53.702;10.208;2022-11-15T10:40:34;7.17;;;5.60;;
64894;SDS011;51588;53.702;10.208;2022-11-15T10:43:04;9.60;;;6.10;;
64894;SDS011;51588;53.702;10.208;2022-11-15T10:45:32;6.60;;;5.90;;
64894;SDS011;51588;53.702;10.208;2022-11-15T10:50:44;8.80;;;6.27;;
64894;SDS011;51588;53.702;10.208;2022-11-15T10:53:12;9.30;;;6.10;;
64894;SDS011;51588;53.702;10.208;2022-11-15T10:55:42;7.70;;;6.20;;
64894;SDS011;51588;53.702;10.208;2022-11-15T10:58:19;8.60;;;6.80;;
64894;SDS011;51588;53.702;10.208;2022-11-15T11:00:46;9.30;;;6.30;;
64894;SDS011;51588;53.702;10.208;2022-11-15T11:03:23;8.60;;;6.50;;
64894;SDS011;51588;53.702;10.208;2022-11-15T11:06:02;8.27;;;6.00;;
64894;SDS011;51588;53.702;10.208;2022-11-15T11:08:29;7.73;;;6.07;;
64894;SDS011;51588;53.702;10.208;2022-11-15T11:10:58;7.40;;;6.27;;
64894;SDS011;51588;53.702;10.208;2022-11-15T11:13:26;7.43;;;6.00;;
64894;SDS011;51588;53.702;10.208;2022-11-15T11:15:53;7.80;;;6.57;;
64894;SDS011;51588;53.702;10.208;2022-11-15T11:18:23;8.27;;;5.90;;
64894;SDS011;51588;53.702;10.208;2022-11-15T11:20:53;6.90;;;5.93;;
64894;SDS011;51588;53.702;10.208;2022-11-15T11:23:31;9.30;;;6.43;;
64894;SDS011;51588;53.702;10.208;2022-11-15T11:26:07;7.17;;;6.43;;
64894;SDS011;51588;53.702;10.208;2022-11-15T11:28:39;6.93;;;5.97;;
64894;SDS011;51588;53.702;10.208;2022-11-15T11:31:13;6.73;;;5.73;;
64894;SDS011;51588;53.702;10.208;2022-11-15T11:33:44;6.47;;;5.70;;
64894;SDS011;51588;53.702;10.208;2022-11-15T11:36:16;6.50;;;5.80;;
64894;SDS011;51588;53.702;10.208;2022-11-15T11:38:50;7.10;;;6.00;;
64894;SDS011;51588;53.702;10.208;2022-11-15T11:41:36;6.30;;;5.70;;
64894;SDS011;51588;53.702;10.208;2022-11-15T11:44:06;7.50;;;6.03;;
64894;SDS011;51588;53.702;10.208;2022-11-15T11:46:47;8.10;;;6.37;;
64894;SDS011;51588;53.702;10.208;2022-11-15T11:49:15;7.53;;;6.17;;
64894;SDS011;51588;53.702;10.208;2022-11-15T11:51:43;8.40;;;6.03;;
64894;SDS011;51588;53.702;10.208;2022-11-15T11:54:12;9.93;;;5.50;;
64894;SDS011;51588;53.702;10.208;2022-11-15T11:56:43;6.43;;;5.80;;
64894;SDS011;51588;53.702;10.208;2022-11-15T11:59:11;6.73;;;5.43;;
64894;SDS011;51588;53.702;10.208;2022-11-15T12:01:43;7.60;;;5.60;;
64894;SDS011;51588;53.702;10.208;2022-11-15T12:04:11;7.67;;;5.57;;
64894;SDS011;51588;53.702;10.208;2022-11-15T12:06:41;6.93;;;5.37;;
64894;SDS011;51588;53.702;10.208;2022-11-15T12:09:12;9.00;;;6.30;;
64894;SDS011;51588;53.702;10.208;2022-11-15T12:11:45;7.27;;;5.73;;
64894;SDS011;51588;53.702;10.208;2022-11-15T12:14:16;8.40;;;5.23;;
64894;SDS011;51588;53.702;10.208;2022-11-15T12:16:47;7.77;;;6.30;;
64894;SDS011;51588;53.702;10.208;2022-11-15T12:19:13;7.07;;;6.00;;
64894;SDS011;51588;53.702;10.208;2022-11-15T12:21:42;8.00;;;5.73;;
64894;SDS011;51588;53.702;10.208;2022-11-15T12:24:12;7.67;;;5.70;;
64894;SDS011;51588;53.702;10.208;2022-11-15T12:26:41;6.10;;;5.43;;
64894;SDS011;51588;53.702;10.208;2022-11-15T12:29:11;6.33;;;5.33;;
64894;SDS011;51588;53.702;10.208;2022-11-15T12:31:41;8.97;;;5.87;;
64894;SDS011;51588;53.702;10.208;2022-11-15T12:34:13;8.80;;;5.93;;
64894;SDS011;51588;53.702;10.208;2022-11-15T12:36:42;8.73;;;6.50;;
64894;SDS011;51588;53.702;10.208;2022-11-15T12:39:09;7.20;;;5.67;;
64894;SDS011;51588;53.702;10.208;2022-11-15T12:41:36;8.53;;;5.23;;
64894;SDS011;51588;53.702;10.208;2022-11-15T12:44:03;7.50;;;5.40;;
64894;SDS011;51588;53.702;10.208;2022-11-15T12:52:09;7.50;;;5.50;;
64894;SDS011;51588;53.702;10.208;2022-11-15T12:57:36;8.70;;;6.17;;
64894;SDS011;51588;53.702;10.208;2022-11-15T13:00:36;7.80;;;5.77;;
64894;SDS011;51588;53.702;10.208;2022-11-15T13:02:55;7.27;;;5.60;;
64894;SDS011;51588;53.702;10.208;2022-11-15T13:05:53;7.37;;;5.13;;
64894;SDS011;51588;53.702;10.208;2022-11-15T13:08:36;7.00;;;5.67;;
64894;SDS011;51588;53.702;10.208;2022-11-15T13:13:44;7.33;;;6.17;;
64894;SDS011;51588;53.702;10.208;2022-11-15T13:16:10;9.27;;;5.57;;
64894;SDS011;51588;53.702;10.208;2022-11-15T13:18:43;6.50;;;5.20;;
64894;SDS011;51588;53.702;10.208;2022-11-15T13:21:20;7.03;;;4.70;;
64894;SDS011;51588;53.702;10.208;2022-11-15T13:24:09;6.43;;;5.33;;
64894;SDS011;51588;53.702;10.208;2022-11-15T13:26:37;6.27;;;5.13;;
64894;SDS011;51588;53.702;10.208;2022-11-15T13:29:04;6.57;;;5.80;;
64894;SDS011;51588;53.702;10.208;2022-11-15T13:31:34;6.50;;;5.80;;
64894;SDS011;51588;53.702;10.208;2022-11-15T13:34:02;7.00;;;5.20;;
64894;SDS011;51588;53.702;10.208;2022-11-15T13:36:30;7.67;;;5.07;;
64894;SDS011;51588;53.702;10.208;2022-11-15T13:38:59;7.13;;;5.40;;
64894;SDS011;51588;53.702;10.208;2022-11-15T13:41:28;6.40;;;5.70;;
64894;SDS011;51588;53.702;10.208;2022-11-15T13:43:55;7.90;;;5.53;;
64894;SDS011;51588;53.702;10.208;2022-11-15T13:46:22;7.17;;;5.60;;
64894;SDS011;51588;53.702;10.208;2022-11-15T13:48:53;5.90;;;5.30;;
64894;SDS011;51588;53.702;10.208;2022-11-15T13:51:20;7.30;;;5.50;;
64894;SDS011;51588;53.702;10.208;2022-11-15T13:53:50;8.90;;;5.80;;
64894;SDS011;51588;53.702;10.208;2022-11-15T13:56:19;6.60;;;5.37;;
64894;SDS011;51588;53.702;10.208;2022-11-15T13:58:48;5.60;;;5.00;;
64894;SDS011;51588;53.702;10.208;2022-11-15T14:01:15;6.53;;;5.13;;
64894;SDS011;51588;53.702;10.208;2022-11-15T14:03:46;8.63;;;5.80;;
64894;SDS011;51588;53.702;10.208;2022-11-15T14:06:14;6.00;;;5.40;;
64894;SDS011;51588;53.702;10.208;2022-11-15T14:08:41;8.20;;;5.53;;
64894;SDS011;51588;53.702;10.208;2022-11-15T14:11:09;8.70;;;5.40;;
64894;SDS011;51588;53.702;10.208;2022-11-15T14:13:37;8.57;;;4.83;;
64894;SDS011;51588;53.702;10.208;2022-11-15T14:16:18;8.03;;;5.13;;
64894;SDS011;51588;53.702;10.208;2022-11-15T14:18:46;7.10;;;4.60;;
64894;SDS011;51588;53.702;10.208;2022-11-15T14:21:13;6.10;;;5.00;;
64894;SDS011;51588;53.702;10.208;2022-11-15T14:23:39;10.17;;;7.67;;
64894;SDS011;51588;53.702;10.208;2022-11-15T14:26:10;18.80;;;11.23;;
64894;SDS011;51588;53.702;10.208;2022-11-15T14:28:37;13.53;;;9.97;;
64894;SDS011;51588;53.702;10.208;2022-11-15T14:31:06;18.50;;;13.40;;
64894;SDS011;51588;53.702;10.208;2022-11-15T14:33:37;18.53;;;12.10;;
64894;SDS011;51588;53.702;10.208;2022-11-15T14:36:05;16.63;;;12.70;;
64894;SDS011;51588;53.702;10.208;2022-11-15T14:38:32;15.50;;;11.50;;
64894;SDS011;51588;53.702;10.208;2022-11-15T14:40:59;13.00;;;11.20;;
64894;SDS011;51588;53.702;10.208;2022-11-15T14:43:26;13.90;;;11.17;;
64894;SDS011;51588;53.702;10.208;2022-11-15T14:45:52;15.20;;;10.43;;